createdAt,value
2017-08-07T00:00:00.080Z,0
2017-08-07T00:01:09.628Z,0
2017-08-07T00:02:19.457Z,0
2017-08-07T00:03:28.991Z,0
2017-08-07T00:04:38.205Z,0
2017-08-07T00:05:47.739Z,0
2017-08-07T00:06:57.587Z,0
2017-08-07T00:08:06.801Z,0
2017-08-07T00:09:16.010Z,0
2017-08-07T00:10:25.541Z,0
2017-08-07T00:11:34.434Z,0
2017-08-07T00:12:43.969Z,0
2017-08-07T00:13:53.647Z,0
2017-08-07T00:15:03.502Z,0
2017-08-07T00:16:12.707Z,0
2017-08-07T00:17:22.564Z,0
2017-08-07T00:18:32.424Z,0
2017-08-07T00:19:41.729Z,0
2017-08-07T00:20:50.943Z,0
2017-08-07T00:22:00.149Z,0
2017-08-07T00:23:09.683Z,0
2017-08-07T00:24:19.217Z,0
2017-08-07T00:25:29.222Z,0
2017-08-07T00:26:38.753Z,0
2017-08-07T00:27:47.959Z,0
2017-08-07T00:28:57.823Z,0
2017-08-07T00:30:07.367Z,0
2017-08-07T00:31:17.424Z,0
2017-08-07T00:32:27.622Z,0
2017-08-07T00:33:37.470Z,0
2017-08-07T00:34:46.678Z,0
2017-08-07T00:35:55.896Z,0
2017-08-07T00:37:05.473Z,0
2017-08-07T00:38:15.001Z,0
2017-08-07T00:39:24.206Z,0
2017-08-07T00:40:34.063Z,0
2017-08-07T00:41:43.590Z,0
2017-08-07T00:42:52.620Z,0
2017-08-07T00:44:01.825Z,0
2017-08-07T00:45:11.351Z,0
2017-08-07T00:46:20.880Z,0
2017-08-07T00:47:30.087Z,0
2017-08-07T00:48:39.597Z,0
2017-08-07T00:49:48.800Z,0
2017-08-07T00:50:57.678Z,0
2017-08-07T00:52:07.208Z,0
2017-08-07T00:53:17.059Z,0
2017-08-07T00:54:26.591Z,0
2017-08-07T00:55:35.796Z,0
2017-08-07T00:56:44.687Z,0
2017-08-07T00:57:53.895Z,0
2017-08-07T00:59:03.100Z,0
2017-08-07T01:00:12.733Z,0
2017-08-07T01:01:22.637Z,0
2017-08-07T01:02:31.839Z,0
2017-08-07T01:03:41.369Z,0
2017-08-07T01:04:50.572Z,0
2017-08-07T01:06:00.247Z,0
2017-08-07T01:07:09.777Z,0
2017-08-07T01:08:19.303Z,0
2017-08-07T01:09:28.511Z,0
2017-08-07T01:10:38.041Z,0
2017-08-07T01:11:47.243Z,0
2017-08-07T01:12:56.774Z,0
2017-08-07T01:14:06.626Z,0
2017-08-07T01:15:16.154Z,0
2017-08-07T01:16:25.695Z,0
2017-08-07T01:17:35.231Z,0
2017-08-07T01:18:44.435Z,0
2017-08-07T01:19:53.965Z,0
2017-08-07T01:21:03.171Z,0
2017-08-07T01:22:12.377Z,0
2017-08-07T01:23:22.272Z,0
2017-08-07T01:24:31.153Z,0
2017-08-07T01:25:41.003Z,0
2017-08-07T01:26:50.858Z,0
2017-08-07T01:28:00.386Z,0
2017-08-07T01:29:09.740Z,0
2017-08-07T01:30:18.949Z,0
2017-08-07T01:31:28.158Z,0
2017-08-07T01:32:37.360Z,0
2017-08-07T01:33:46.566Z,0
2017-08-07T01:34:56.465Z,0
2017-08-07T01:36:05.666Z,0
2017-08-07T01:37:14.553Z,0
2017-08-07T01:38:23.766Z,0
2017-08-07T01:39:32.968Z,0
2017-08-07T01:40:42.499Z,0
2017-08-07T01:41:51.706Z,0
2017-08-07T01:43:00.913Z,0
2017-08-07T01:44:10.765Z,0
2017-08-07T01:45:19.971Z,0
2017-08-07T01:46:29.748Z,0
2017-08-07T01:47:39.279Z,0
2017-08-07T01:48:48.165Z,0
2017-08-07T01:49:57.690Z,0
2017-08-07T01:51:06.902Z,0
2017-08-07T01:52:16.577Z,0
2017-08-07T01:53:25.783Z,0
2017-08-07T01:54:35.633Z,0
2017-08-07T01:55:44.528Z,0
2017-08-07T01:56:54.377Z,0
2017-08-07T01:58:04.061Z,0
2017-08-07T01:59:13.590Z,0
2017-08-07T02:00:23.134Z,0
2017-08-07T02:01:32.987Z,0
2017-08-07T02:02:41.867Z,0
2017-08-07T02:03:51.177Z,0
2017-08-07T02:05:00.380Z,0
2017-08-07T02:06:09.266Z,0
2017-08-07T02:07:19.437Z,0
2017-08-07T02:08:29.286Z,0
2017-08-07T02:09:38.812Z,0
2017-08-07T02:10:48.989Z,0
2017-08-07T02:11:58.515Z,0
2017-08-07T02:13:07.391Z,0
2017-08-07T02:14:16.925Z,0
2017-08-07T02:15:26.328Z,0
2017-08-07T02:16:35.532Z,0
2017-08-07T02:17:44.737Z,0
2017-08-07T02:18:54.589Z,0
2017-08-07T02:20:04.116Z,0
2017-08-07T02:21:13.944Z,0
2017-08-07T02:22:23.474Z,0
2017-08-07T02:23:33.005Z,0
2017-08-07T02:24:42.208Z,0
2017-08-07T02:25:51.418Z,0
2017-08-07T02:27:01.344Z,0
2017-08-07T02:28:10.871Z,0
2017-08-07T02:29:19.752Z,0
2017-08-07T02:30:29.602Z,0
2017-08-07T02:31:39.132Z,0
2017-08-07T02:32:49.081Z,0
2017-08-07T02:33:58.934Z,0
2017-08-07T02:35:08.146Z,0
2017-08-07T02:36:17.996Z,0
2017-08-07T02:37:27.523Z,0
2017-08-07T02:38:36.725Z,0
2017-08-07T02:39:46.580Z,0
2017-08-07T02:40:55.792Z,0
2017-08-07T02:42:05.331Z,0
2017-08-07T02:43:14.873Z,0
2017-08-07T02:44:24.234Z,0
2017-08-07T02:45:34.094Z,0
2017-08-07T02:46:43.646Z,0
2017-08-07T02:47:52.533Z,0
2017-08-07T02:49:01.412Z,0
2017-08-07T02:50:11.387Z,0
2017-08-07T02:51:20.916Z,0
2017-08-07T02:52:30.118Z,0
2017-08-07T02:53:39.002Z,0
2017-08-07T02:54:49.003Z,0
2017-08-07T02:55:58.042Z,0
2017-08-07T02:57:07.896Z,0
2017-08-07T02:58:17.749Z,0
2017-08-07T02:59:26.629Z,0
2017-08-07T03:00:36.154Z,0
2017-08-07T03:01:45.837Z,0
2017-08-07T03:02:55.684Z,0
2017-08-07T03:04:05.214Z,0
2017-08-07T03:05:14.423Z,0
2017-08-07T03:06:23.952Z,0
2017-08-07T03:07:33.638Z,0
2017-08-07T03:08:43.166Z,0
2017-08-07T03:09:53.015Z,0
2017-08-07T03:11:01.897Z,0
2017-08-07T03:12:12.072Z,0
2017-08-07T03:13:20.951Z,0
2017-08-07T03:14:30.161Z,0
2017-08-07T03:15:39.690Z,0
2017-08-07T03:16:48.574Z,0
2017-08-07T03:17:58.420Z,0
2017-08-07T03:19:07.944Z,0
2017-08-07T03:20:17.799Z,0
2017-08-07T03:21:27.652Z,0
2017-08-07T03:22:37.181Z,0
2017-08-07T03:23:46.703Z,0
2017-08-07T03:24:56.388Z,0
2017-08-07T03:26:05.916Z,0
2017-08-07T03:27:15.449Z,0
2017-08-07T03:28:25.299Z,0
2017-08-07T03:29:34.826Z,0
2017-08-07T03:30:44.192Z,0
2017-08-07T03:31:54.049Z,0
2017-08-07T03:33:03.574Z,0
2017-08-07T03:34:12.782Z,0
2017-08-07T03:35:22.632Z,0
2017-08-07T03:36:31.835Z,0
2017-08-07T03:37:41.041Z,0
2017-08-07T03:38:50.255Z,0
2017-08-07T03:40:00.106Z,0
2017-08-07T03:41:10.278Z,0
2017-08-07T03:42:20.605Z,0
2017-08-07T03:43:29.809Z,0
2017-08-07T03:44:39.013Z,5
2017-08-07T03:45:48.539Z,5
2017-08-07T03:46:58.389Z,5
2017-08-07T03:48:07.844Z,5
2017-08-07T03:49:17.695Z,5
2017-08-07T03:50:26.909Z,5
2017-08-07T03:51:37.081Z,5
2017-08-07T03:52:46.619Z,5
2017-08-07T03:53:56.395Z,10
2017-08-07T03:55:05.921Z,10
2017-08-07T03:56:15.452Z,10
2017-08-07T03:57:24.985Z,10
2017-08-07T03:58:35.157Z,10
2017-08-07T03:59:44.512Z,15
2017-08-07T04:00:54.049Z,15
2017-08-07T04:02:03.578Z,15
2017-08-07T04:03:12.779Z,15
2017-08-07T04:04:21.672Z,15
2017-08-07T04:05:31.205Z,20
2017-08-07T04:06:41.383Z,20
2017-08-07T04:07:50.914Z,20
2017-08-07T04:09:00.444Z,20
2017-08-07T04:10:09.974Z,25
2017-08-07T04:11:19.927Z,25
2017-08-07T04:12:29.777Z,25
2017-08-07T04:13:39.300Z,25
2017-08-07T04:14:48.516Z,30
2017-08-07T04:15:58.046Z,30
2017-08-07T04:17:08.194Z,30
2017-08-07T04:18:17.732Z,35
2017-08-07T04:19:26.932Z,35
2017-08-07T04:20:36.463Z,35
2017-08-07T04:21:45.991Z,40
2017-08-07T04:22:55.893Z,40
2017-08-07T04:24:05.751Z,40
2017-08-07T04:25:15.289Z,40
2017-08-07T04:26:25.467Z,45
2017-08-07T04:27:34.669Z,45
2017-08-07T04:28:44.351Z,45
2017-08-07T04:29:53.556Z,50
2017-08-07T04:31:03.082Z,50
2017-08-07T04:32:12.609Z,50
2017-08-07T04:33:22.148Z,55
2017-08-07T04:34:31.502Z,55
2017-08-07T04:35:41.357Z,55
2017-08-07T04:36:50.898Z,60
2017-08-07T04:38:00.431Z,60
2017-08-07T04:39:10.284Z,60
2017-08-07T04:40:20.334Z,65
2017-08-07T04:41:30.832Z,65
2017-08-07T04:42:40.361Z,65
2017-08-07T04:43:50.248Z,65
2017-08-07T04:45:00.101Z,70
2017-08-07T04:46:09.954Z,70
2017-08-07T04:47:20.129Z,70
2017-08-07T04:48:29.986Z,75
2017-08-07T04:49:39.514Z,75
2017-08-07T04:50:48.720Z,75
2017-08-07T04:51:57.600Z,80
2017-08-07T04:53:07.131Z,80
2017-08-07T04:54:16.669Z,80
2017-08-07T04:55:25.879Z,80
2017-08-07T04:56:35.100Z,85
2017-08-07T04:57:44.778Z,85
2017-08-07T04:58:54.631Z,85
2017-08-07T05:00:04.158Z,90
2017-08-07T05:01:14.334Z,90
2017-08-07T05:02:23.861Z,90
2017-08-07T05:03:33.765Z,90
2017-08-07T05:04:43.295Z,95
2017-08-07T05:05:52.174Z,95
2017-08-07T05:07:01.711Z,95
2017-08-07T05:08:10.614Z,95
2017-08-07T05:09:20.123Z,100
2017-08-07T05:10:29.331Z,100
2017-08-07T05:11:39.189Z,100
2017-08-07T05:12:49.038Z,100
2017-08-07T05:13:58.570Z,100
2017-08-07T05:15:08.250Z,100
2017-08-07T05:16:18.110Z,100
2017-08-07T05:17:27.649Z,105
2017-08-07T05:18:36.853Z,105
2017-08-07T05:19:46.063Z,110
2017-08-07T05:20:55.643Z,110
2017-08-07T05:22:05.505Z,110
2017-08-07T05:23:15.034Z,115
2017-08-07T05:24:24.239Z,115
2017-08-07T05:25:34.086Z,115
2017-08-07T05:26:43.440Z,115
2017-08-07T05:27:53.618Z,120
2017-08-07T05:29:03.797Z,120
2017-08-07T05:30:13.333Z,120
2017-08-07T05:31:22.545Z,120
2017-08-07T05:32:32.375Z,125
2017-08-07T05:33:41.258Z,125
2017-08-07T05:34:50.138Z,125
2017-08-07T05:35:59.356Z,125
2017-08-07T05:37:08.885Z,125
2017-08-07T05:38:18.422Z,125
2017-08-07T05:39:28.287Z,125
2017-08-07T05:40:38.141Z,125
2017-08-07T05:41:47.025Z,130
2017-08-07T05:42:56.551Z,130
2017-08-07T05:44:07.136Z,130
2017-08-07T05:45:16.663Z,130
2017-08-07T05:46:26.194Z,130
2017-08-07T05:47:35.402Z,130
2017-08-07T05:48:44.608Z,135
2017-08-07T05:49:53.875Z,135
2017-08-07T05:51:02.756Z,135
2017-08-07T05:52:12.293Z,135
2017-08-07T05:53:22.197Z,135
2017-08-07T05:54:31.723Z,135
2017-08-07T05:55:41.736Z,135
2017-08-07T05:56:50.940Z,135
2017-08-07T05:58:00.487Z,135
2017-08-07T05:59:10.666Z,135
2017-08-07T06:00:20.527Z,135
2017-08-07T06:01:30.645Z,140
2017-08-07T06:02:40.178Z,140
2017-08-07T06:03:49.066Z,140
2017-08-07T06:04:57.958Z,135
2017-08-07T06:06:07.811Z,135
2017-08-07T06:07:17.022Z,135
2017-08-07T06:08:26.666Z,135
2017-08-07T06:09:36.525Z,130
2017-08-07T06:10:46.062Z,135
2017-08-07T06:11:55.596Z,135
2017-08-07T06:13:04.481Z,140
2017-08-07T06:14:13.692Z,140
2017-08-07T06:15:23.225Z,140
2017-08-07T06:16:33.081Z,140
2017-08-07T06:17:41.980Z,145
2017-08-07T06:18:51.509Z,145
2017-08-07T06:20:01.687Z,145
2017-08-07T06:21:10.893Z,145
2017-08-07T06:22:20.741Z,145
2017-08-07T06:23:30.596Z,145
2017-08-07T06:24:40.130Z,150
2017-08-07T06:25:49.986Z,150
2017-08-07T06:26:59.194Z,150
2017-08-07T06:28:08.409Z,150
2017-08-07T06:29:17.937Z,150
2017-08-07T06:30:27.481Z,155
2017-08-07T06:31:36.370Z,155
2017-08-07T06:32:45.956Z,155
2017-08-07T06:33:55.163Z,155
2017-08-07T06:35:05.019Z,160
2017-08-07T06:36:14.227Z,160
2017-08-07T06:37:24.415Z,160
2017-08-07T06:38:34.095Z,160
2017-08-07T06:39:43.957Z,160
2017-08-07T06:40:53.818Z,160
2017-08-07T06:42:03.676Z,160
2017-08-07T06:43:12.892Z,165
2017-08-07T06:44:22.472Z,165
2017-08-07T06:45:31.999Z,165
2017-08-07T06:46:41.210Z,165
2017-08-07T06:47:50.090Z,165
2017-08-07T06:48:59.297Z,165
2017-08-07T06:50:09.574Z,170
2017-08-07T06:51:18.794Z,170
2017-08-07T06:52:28.647Z,170
2017-08-07T06:53:38.195Z,170
2017-08-07T06:54:48.049Z,170
2017-08-07T06:55:57.827Z,170
2017-08-07T06:57:07.682Z,170
2017-08-07T06:58:17.867Z,170
2017-08-07T06:59:27.401Z,170
2017-08-07T07:00:36.930Z,170
2017-08-07T07:01:46.295Z,170
2017-08-07T07:02:55.504Z,170
2017-08-07T07:04:05.376Z,170
2017-08-07T07:05:14.917Z,165
2017-08-07T07:06:24.445Z,165
2017-08-07T07:07:34.376Z,165
2017-08-07T07:08:43.819Z,165
2017-08-07T07:09:53.136Z,170
2017-08-07T07:11:02.361Z,170
2017-08-07T07:12:12.218Z,170
2017-08-07T07:13:21.354Z,170
2017-08-07T07:14:31.208Z,170
2017-08-07T07:15:41.066Z,165
2017-08-07T07:16:50.948Z,165
2017-08-07T07:18:01.123Z,170
2017-08-07T07:19:11.457Z,170
2017-08-07T07:20:20.985Z,175
2017-08-07T07:21:30.523Z,175
2017-08-07T07:22:40.060Z,170
2017-08-07T07:23:49.269Z,170
2017-08-07T07:24:58.315Z,175
2017-08-07T07:26:07.522Z,175
2017-08-07T07:27:16.733Z,175
2017-08-07T07:28:25.615Z,180
2017-08-07T07:29:35.158Z,180
2017-08-07T07:30:44.195Z,180
2017-08-07T07:31:53.403Z,180
2017-08-07T07:33:02.960Z,180
2017-08-07T07:34:12.491Z,180
2017-08-07T07:35:21.698Z,180
2017-08-07T07:36:31.967Z,180
2017-08-07T07:37:41.510Z,180
2017-08-07T07:38:51.697Z,180
2017-08-07T07:40:01.240Z,180
2017-08-07T07:41:11.424Z,185
2017-08-07T07:42:21.651Z,185
2017-08-07T07:43:31.185Z,185
2017-08-07T07:44:41.381Z,185
2017-08-07T07:45:50.597Z,185
2017-08-07T07:47:00.141Z,180
2017-08-07T07:48:10.470Z,185
2017-08-07T07:49:19.729Z,185
2017-08-07T07:50:29.579Z,185
2017-08-07T07:51:39.112Z,185
2017-08-07T07:52:48.650Z,190
2017-08-07T07:53:58.211Z,190
2017-08-07T07:55:07.421Z,190
2017-08-07T07:56:16.303Z,190
2017-08-07T07:57:25.513Z,190
2017-08-07T07:58:34.722Z,190
2017-08-07T07:59:44.408Z,190
2017-08-07T08:00:53.945Z,190
2017-08-07T08:02:03.481Z,190
2017-08-07T08:03:12.684Z,190
2017-08-07T08:04:21.569Z,190
2017-08-07T08:05:31.574Z,190
2017-08-07T08:06:41.130Z,190
2017-08-07T08:07:50.343Z,195
2017-08-07T08:09:00.198Z,195
2017-08-07T08:10:10.052Z,200
2017-08-07T08:11:19.318Z,200
2017-08-07T08:12:28.848Z,200
2017-08-07T08:13:38.378Z,200
2017-08-07T08:14:48.234Z,205
2017-08-07T08:15:57.445Z,200
2017-08-07T08:17:06.709Z,200
2017-08-07T08:18:16.592Z,200
2017-08-07T08:19:26.125Z,200
2017-08-07T08:20:35.022Z,200
2017-08-07T08:21:44.232Z,200
2017-08-07T08:22:53.757Z,195
2017-08-07T08:24:03.933Z,200
2017-08-07T08:25:13.472Z,200
2017-08-07T08:26:23.005Z,200
2017-08-07T08:27:31.892Z,205
2017-08-07T08:28:40.946Z,205
2017-08-07T08:29:50.482Z,200
2017-08-07T08:31:00.016Z,205
2017-08-07T08:32:09.546Z,205
2017-08-07T08:33:18.764Z,205
2017-08-07T08:34:27.747Z,205
2017-08-07T08:35:36.966Z,205
2017-08-07T08:36:46.186Z,210
2017-08-07T08:37:55.071Z,210
2017-08-07T08:39:04.605Z,210
2017-08-07T08:40:14.117Z,210
2017-08-07T08:41:23.326Z,210
2017-08-07T08:42:32.548Z,210
2017-08-07T08:43:41.756Z,210
2017-08-07T08:44:50.965Z,210
2017-08-07T08:46:00.805Z,205
2017-08-07T08:47:10.350Z,205
2017-08-07T08:48:19.566Z,200
2017-08-07T08:49:29.105Z,200
2017-08-07T08:50:38.313Z,200
2017-08-07T08:51:47.895Z,200
2017-08-07T08:52:57.430Z,200
2017-08-07T08:54:06.639Z,200
2017-08-07T08:55:15.849Z,200
2017-08-07T08:56:25.063Z,200
2017-08-07T08:57:34.895Z,200
2017-08-07T08:58:44.753Z,200
2017-08-07T08:59:54.609Z,200
2017-08-07T09:01:04.466Z,200
2017-08-07T09:02:14.014Z,200
2017-08-07T09:03:23.557Z,200
2017-08-07T09:04:33.088Z,200
2017-08-07T09:05:41.991Z,200
2017-08-07T09:06:51.211Z,200
2017-08-07T09:08:00.426Z,200
2017-08-07T09:09:10.333Z,200
2017-08-07T09:10:20.839Z,200
2017-08-07T09:11:30.373Z,200
2017-08-07T09:12:39.259Z,200
2017-08-07T09:13:48.143Z,195
2017-08-07T09:14:57.458Z,200
2017-08-07T09:16:07.312Z,200
2017-08-07T09:17:16.853Z,200
2017-08-07T09:18:26.395Z,200
2017-08-07T09:19:35.280Z,195
2017-08-07T09:20:44.979Z,195
2017-08-07T09:21:54.510Z,195
2017-08-07T09:23:04.042Z,195
2017-08-07T09:24:13.583Z,200
2017-08-07T09:25:23.116Z,200
2017-08-07T09:26:32.916Z,200
2017-08-07T09:27:42.126Z,205
2017-08-07T09:28:52.011Z,205
2017-08-07T09:30:01.868Z,205
2017-08-07T09:31:11.089Z,210
2017-08-07T09:32:20.772Z,215
2017-08-07T09:33:30.306Z,220
2017-08-07T09:34:39.838Z,225
2017-08-07T09:35:49.050Z,225
2017-08-07T09:36:58.933Z,225
2017-08-07T09:38:08.720Z,225
2017-08-07T09:39:18.250Z,230
2017-08-07T09:40:27.789Z,230
2017-08-07T09:41:37.647Z,235
2017-08-07T09:42:46.854Z,240
2017-08-07T09:43:56.763Z,240
2017-08-07T09:45:07.271Z,245
2017-08-07T09:46:16.486Z,245
2017-08-07T09:47:26.340Z,250
2017-08-07T09:48:35.236Z,250
2017-08-07T09:49:44.495Z,250
2017-08-07T09:50:53.388Z,250
2017-08-07T09:52:02.931Z,260
2017-08-07T09:53:12.140Z,260
2017-08-07T09:54:21.022Z,260
2017-08-07T09:55:30.160Z,260
2017-08-07T09:56:39.370Z,260
2017-08-07T09:57:49.231Z,265
2017-08-07T09:58:58.443Z,260
2017-08-07T10:00:07.654Z,265
2017-08-07T10:01:17.339Z,260
2017-08-07T10:02:27.519Z,270
2017-08-07T10:03:37.057Z,270
2017-08-07T10:04:46.593Z,275
2017-08-07T10:05:55.801Z,275
2017-08-07T10:07:05.716Z,275
2017-08-07T10:08:15.908Z,275
2017-08-07T10:09:25.769Z,280
2017-08-07T10:10:35.311Z,280
2017-08-07T10:11:44.524Z,280
2017-08-07T10:12:53.564Z,290
2017-08-07T10:14:03.094Z,300
2017-08-07T10:15:12.317Z,310
2017-08-07T10:16:21.533Z,320
2017-08-07T10:17:30.743Z,320
2017-08-07T10:18:39.732Z,325
2017-08-07T10:19:49.266Z,320
2017-08-07T10:20:58.152Z,325
2017-08-07T10:22:07.373Z,330
2017-08-07T10:23:17.233Z,345
2017-08-07T10:24:26.180Z,350
2017-08-07T10:25:35.068Z,360
2017-08-07T10:26:44.932Z,385
2017-08-07T10:27:53.824Z,395
2017-08-07T10:29:03.682Z,410
2017-08-07T10:30:13.045Z,420
2017-08-07T10:31:22.584Z,445
2017-08-07T10:32:32.118Z,420
2017-08-07T10:33:41.328Z,395
2017-08-07T10:34:50.865Z,395
2017-08-07T10:36:00.223Z,375
2017-08-07T10:37:09.760Z,370
2017-08-07T10:38:19.620Z,360
2017-08-07T10:39:28.833Z,360
2017-08-07T10:40:38.696Z,375
2017-08-07T10:41:48.530Z,405
2017-08-07T10:42:58.087Z,420
2017-08-07T10:44:07.629Z,430
2017-08-07T10:45:17.164Z,435
2017-08-07T10:46:26.712Z,430
2017-08-07T10:47:35.648Z,435
2017-08-07T10:48:45.187Z,450
2017-08-07T10:49:54.400Z,485
2017-08-07T10:51:03.612Z,500
2017-08-07T10:52:13.811Z,505
2017-08-07T10:53:23.398Z,510
2017-08-07T10:54:32.944Z,530
2017-08-07T10:55:42.799Z,530
2017-08-07T10:56:52.334Z,530
2017-08-07T10:58:01.543Z,505
2017-08-07T10:59:11.600Z,505
2017-08-07T11:00:20.834Z,495
2017-08-07T11:01:29.726Z,495
2017-08-07T11:02:39.592Z,490
2017-08-07T11:03:48.480Z,470
2017-08-07T11:04:57.688Z,455
2017-08-07T11:06:06.899Z,475
2017-08-07T11:07:16.766Z,530
2017-08-07T11:08:25.978Z,575
2017-08-07T11:09:34.869Z,580
2017-08-07T11:10:44.455Z,545
2017-08-07T11:11:53.680Z,530
2017-08-07T11:13:02.891Z,500
2017-08-07T11:14:12.427Z,500
2017-08-07T11:15:21.314Z,495
2017-08-07T11:16:30.900Z,490
2017-08-07T11:17:40.756Z,505
2017-08-07T11:18:50.621Z,540
2017-08-07T11:19:59.842Z,555
2017-08-07T11:21:09.381Z,560
2017-08-07T11:22:19.343Z,555
2017-08-07T11:23:28.901Z,555
2017-08-07T11:24:38.119Z,515
2017-08-07T11:25:47.979Z,475
2017-08-07T11:26:57.521Z,435
2017-08-07T11:28:07.268Z,430
2017-08-07T11:29:16.848Z,430
2017-08-07T11:30:26.390Z,450
2017-08-07T11:31:35.930Z,455
2017-08-07T11:32:44.834Z,490
2017-08-07T11:33:54.207Z,500
2017-08-07T11:35:03.744Z,545
2017-08-07T11:36:12.629Z,555
2017-08-07T11:37:21.840Z,535
2017-08-07T11:38:31.701Z,565
2017-08-07T11:39:41.810Z,585
2017-08-07T11:40:50.708Z,575
2017-08-07T11:42:00.246Z,515
2017-08-07T11:43:09.455Z,475
2017-08-07T11:44:18.993Z,475
2017-08-07T11:45:28.311Z,500
2017-08-07T11:46:38.496Z,545
2017-08-07T11:47:47.711Z,605
2017-08-07T11:48:57.569Z,590
2017-08-07T11:50:07.427Z,590
2017-08-07T11:51:16.634Z,605
2017-08-07T11:52:25.848Z,610
2017-08-07T11:53:35.708Z,575
2017-08-07T11:54:44.598Z,595
2017-08-07T11:55:53.813Z,610
2017-08-07T11:57:03.077Z,645
2017-08-07T11:58:12.623Z,665
2017-08-07T11:59:21.837Z,970
2017-08-07T12:00:31.700Z,2395
2017-08-07T12:01:40.915Z,2720
2017-08-07T12:02:51.177Z,2710
2017-08-07T12:04:00.734Z,2485
2017-08-07T12:05:10.271Z,2945
2017-08-07T12:06:19.493Z,2750
2017-08-07T12:07:29.063Z,3050
2017-08-07T12:08:39.129Z,3130
2017-08-07T12:09:48.671Z,3045
2017-08-07T12:10:58.209Z,2865
2017-08-07T12:12:07.750Z,2720
2017-08-07T12:13:17.299Z,2230
2017-08-07T12:14:26.534Z,2635
2017-08-07T12:15:35.753Z,2845
2017-08-07T12:16:44.977Z,2915
2017-08-07T12:17:54.200Z,2950
2017-08-07T12:19:03.419Z,1425
2017-08-07T12:20:12.788Z,2845
2017-08-07T12:21:22.007Z,1870
2017-08-07T12:22:31.549Z,2815
2017-08-07T12:23:41.115Z,3075
2017-08-07T12:24:50.686Z,3095
2017-08-07T12:26:00.214Z,2945
2017-08-07T12:27:09.757Z,3180
2017-08-07T12:28:19.302Z,3565
2017-08-07T12:29:28.523Z,750
2017-08-07T12:30:38.412Z,850
2017-08-07T12:31:48.006Z,890
2017-08-07T12:32:57.237Z,2735
2017-08-07T12:34:06.456Z,2395
2017-08-07T12:35:16.005Z,2740
2017-08-07T12:36:25.552Z,3075
2017-08-07T12:37:35.075Z,3340
2017-08-07T12:38:44.619Z,3365
2017-08-07T12:39:54.494Z,3575
2017-08-07T12:41:04.368Z,3585
2017-08-07T12:42:13.592Z,3695
2017-08-07T12:43:23.670Z,3595
2017-08-07T12:44:33.542Z,3820
2017-08-07T12:45:42.770Z,885
2017-08-07T12:46:52.330Z,3320
2017-08-07T12:48:02.209Z,3600
2017-08-07T12:49:12.091Z,2330
2017-08-07T12:50:21.982Z,1850
2017-08-07T12:51:31.223Z,3450
2017-08-07T12:52:41.098Z,3765
2017-08-07T12:53:50.650Z,3665
2017-08-07T12:55:00.502Z,3600
2017-08-07T12:56:09.415Z,3265
2017-08-07T12:57:19.631Z,3335
2017-08-07T12:58:29.507Z,3240
2017-08-07T12:59:39.128Z,3285
2017-08-07T13:00:48.186Z,3095
2017-08-07T13:01:57.093Z,2765
2017-08-07T13:03:07.307Z,2925
2017-08-07T13:04:17.347Z,2975
2017-08-07T13:05:27.872Z,855
2017-08-07T13:06:36.922Z,845
2017-08-07T13:07:46.153Z,775
2017-08-07T13:08:55.426Z,845
2017-08-07T13:10:04.989Z,2690
2017-08-07T13:11:15.222Z,2870
2017-08-07T13:12:25.206Z,2890
2017-08-07T13:13:34.954Z,1000
2017-08-07T13:14:44.504Z,2680
2017-08-07T13:15:53.407Z,2825
2017-08-07T13:17:02.642Z,2670
2017-08-07T13:18:12.250Z,3125
2017-08-07T13:19:22.158Z,3110
2017-08-07T13:20:31.389Z,3030
2017-08-07T13:21:41.909Z,2790
2017-08-07T13:22:51.142Z,2640
2017-08-07T13:24:00.815Z,2770
2017-08-07T13:25:10.366Z,2510
2017-08-07T13:26:19.913Z,2525
2017-08-07T13:27:29.466Z,1765
2017-08-07T13:28:39.018Z,905
2017-08-07T13:29:48.552Z,780
2017-08-07T13:30:58.426Z,710
2017-08-07T13:32:08.294Z,675
2017-08-07T13:33:18.169Z,660
2017-08-07T13:34:27.716Z,715
2017-08-07T13:35:37.189Z,1450
2017-08-07T13:36:46.412Z,2380
2017-08-07T13:37:55.313Z,2890
2017-08-07T13:39:04.538Z,2860
2017-08-07T13:40:14.089Z,2845
2017-08-07T13:41:23.905Z,2625
2017-08-07T13:42:33.448Z,2480
2017-08-07T13:43:43.320Z,935
2017-08-07T13:44:52.869Z,1135
2017-08-07T13:46:02.429Z,900
2017-08-07T13:47:12.401Z,855
2017-08-07T13:48:21.656Z,2065
2017-08-07T13:49:31.213Z,965
2017-08-07T13:50:40.442Z,875
2017-08-07T13:51:49.984Z,980
2017-08-07T13:53:00.228Z,2380
2017-08-07T13:54:09.454Z,2880
2017-08-07T13:55:19.212Z,2910
2017-08-07T13:56:29.436Z,2990
2017-08-07T13:57:39.350Z,2950
2017-08-07T13:58:48.916Z,2150
2017-08-07T13:59:58.481Z,2915
2017-08-07T14:01:08.033Z,2825
2017-08-07T14:02:16.934Z,2925
2017-08-07T14:03:25.835Z,2795
2017-08-07T14:04:35.540Z,2785
2017-08-07T14:05:45.418Z,2400
2017-08-07T14:06:55.004Z,2300
2017-08-07T14:08:04.554Z,1295
2017-08-07T14:09:13.794Z,2540
2017-08-07T14:10:22.722Z,1120
2017-08-07T14:11:31.967Z,780
2017-08-07T14:12:42.163Z,720
2017-08-07T14:13:51.407Z,685
2017-08-07T14:15:00.955Z,670
2017-08-07T14:16:10.826Z,715
2017-08-07T14:17:20.373Z,785
2017-08-07T14:18:29.600Z,635
2017-08-07T14:19:38.869Z,635
2017-08-07T14:20:48.092Z,700
2017-08-07T14:21:57.317Z,2445
2017-08-07T14:23:06.228Z,2145
2017-08-07T14:24:15.772Z,1030
2017-08-07T14:25:25.973Z,855
2017-08-07T14:26:35.849Z,830
2017-08-07T14:27:44.744Z,830
2017-08-07T14:28:53.967Z,2215
2017-08-07T14:30:03.945Z,740
2017-08-07T14:31:13.174Z,695
2017-08-07T14:32:22.070Z,680
2017-08-07T14:33:31.292Z,675
2017-08-07T14:34:40.512Z,670
2017-08-07T14:35:49.611Z,665
2017-08-07T14:36:59.486Z,680
2017-08-07T14:38:09.755Z,710
2017-08-07T14:39:18.657Z,725
2017-08-07T14:40:27.882Z,750
2017-08-07T14:41:37.898Z,1710
2017-08-07T14:42:47.449Z,2030
2017-08-07T14:43:56.666Z,2505
2017-08-07T14:45:06.206Z,2665
2017-08-07T14:46:15.753Z,2835
2017-08-07T14:47:24.974Z,2920
2017-08-07T14:48:34.213Z,3015
2017-08-07T14:49:43.764Z,2880
2017-08-07T14:50:52.990Z,2645
2017-08-07T14:52:02.535Z,2335
2017-08-07T14:53:11.913Z,2280
2017-08-07T14:54:21.138Z,2135
2017-08-07T14:55:31.007Z,2085
2017-08-07T14:56:40.557Z,800
2017-08-07T14:57:49.780Z,780
2017-08-07T14:58:59.528Z,1885
2017-08-07T15:00:09.405Z,1820
2017-08-07T15:01:18.951Z,2015
2017-08-07T15:02:28.498Z,2060
2017-08-07T15:03:37.724Z,1920
2017-08-07T15:04:47.102Z,1795
2017-08-07T15:05:56.329Z,2215
2017-08-07T15:07:06.196Z,2070
2017-08-07T15:08:15.741Z,2335
2017-08-07T15:09:25.286Z,1905
2017-08-07T15:10:34.879Z,1135
2017-08-07T15:11:44.425Z,1550
2017-08-07T15:12:54.305Z,885
2017-08-07T15:14:03.852Z,1545
2017-08-07T15:15:13.397Z,760
2017-08-07T15:16:23.269Z,800
2017-08-07T15:17:33.140Z,780
2017-08-07T15:18:42.692Z,1805
2017-08-07T15:19:52.887Z,1665
2017-08-07T15:21:02.757Z,1980
2017-08-07T15:22:12.628Z,2060
2017-08-07T15:23:22.530Z,1925
2017-08-07T15:24:32.086Z,2200
2017-08-07T15:25:41.631Z,2075
2017-08-07T15:26:51.174Z,2070
2017-08-07T15:28:01.346Z,2215
2017-08-07T15:29:11.214Z,1730
2017-08-07T15:30:20.761Z,925
2017-08-07T15:31:30.309Z,670
2017-08-07T15:32:39.531Z,620
2017-08-07T15:33:49.873Z,600
2017-08-07T15:34:59.111Z,535
2017-08-07T15:36:08.992Z,495
2017-08-07T15:37:18.220Z,485
2017-08-07T15:38:27.439Z,500
2017-08-07T15:39:36.712Z,560
2017-08-07T15:40:46.579Z,590
2017-08-07T15:41:56.155Z,775
2017-08-07T15:43:05.086Z,1740
2017-08-07T15:44:14.955Z,1905
2017-08-07T15:45:24.547Z,605
2017-08-07T15:46:33.776Z,1805
2017-08-07T15:47:43.319Z,1870
2017-08-07T15:48:52.863Z,1975
2017-08-07T15:50:02.729Z,1865
2017-08-07T15:51:12.526Z,1815
2017-08-07T15:52:22.078Z,1860
2017-08-07T15:53:30.983Z,1720
2017-08-07T15:54:40.203Z,1800
2017-08-07T15:55:49.751Z,1800
2017-08-07T15:56:59.136Z,2060
2017-08-07T15:58:08.360Z,2130
2017-08-07T15:59:17.911Z,2015
2017-08-07T16:00:27.468Z,2020
2017-08-07T16:01:37.015Z,2060
2017-08-07T16:02:46.934Z,1940
2017-08-07T16:03:56.813Z,1845
2017-08-07T16:05:06.038Z,1985
2017-08-07T16:06:15.585Z,2025
2017-08-07T16:07:25.130Z,1790
2017-08-07T16:08:35.255Z,1655